createdAt,value
2023-12-19T00:00:31.804Z,56.30
2023-12-19T00:01:31.742Z,56.70
2023-12-19T00:02:31.935Z,53.40
2023-12-19T00:03:31.769Z,52.50
2023-12-19T00:04:31.712Z,52.60
2023-12-19T00:05:31.750Z,52.80
2023-12-19T00:06:31.738Z,55.10
2023-12-19T00:07:31.720Z,57.50
2023-12-19T00:08:31.710Z,50.10
2023-12-19T00:09:31.677Z,51.60
2023-12-19T00:10:31.669Z,51.10
2023-12-19T00:11:31.685Z,53.10
2023-12-19T00:12:31.711Z,51.70
2023-12-19T00:13:31.658Z,52.80
2023-12-19T00:14:32.176Z,50.80
2023-12-19T00:15:31.667Z,51.20
2023-12-19T00:16:31.639Z,53.70
2023-12-19T00:17:31.629Z,51.80
2023-12-19T00:18:31.782Z,53.40
2023-12-19T00:19:31.725Z,52.20
2023-12-19T00:20:31.613Z,53.30
2023-12-19T00:21:31.672Z,52.50
2023-12-19T00:22:31.568Z,49.40
2023-12-19T00:23:31.571Z,50.50
2023-12-19T00:24:31.604Z,50.70
2023-12-19T00:25:31.605Z,50.40
2023-12-19T00:26:31.545Z,51.60
2023-12-19T00:27:31.559Z,51.40
2023-12-19T00:28:31.520Z,49.40
2023-12-19T00:29:31.514Z,52.10
2023-12-19T00:30:31.588Z,50.90
2023-12-19T00:31:31.664Z,50.20
2023-12-19T00:32:31.487Z,49.60
2023-12-19T00:33:31.587Z,49.40
2023-12-19T00:34:31.580Z,50.50
2023-12-19T00:35:31.502Z,51.20
2023-12-19T00:36:31.466Z,49.20
2023-12-19T00:37:31.442Z,50.70
2023-12-19T00:38:31.434Z,52.00
2023-12-19T00:39:31.493Z,49.70
2023-12-19T00:40:31.417Z,49.80
2023-12-19T00:41:31.414Z,47.70
2023-12-19T00:42:31.455Z,46.40
2023-12-19T00:43:31.393Z,49.30
2023-12-19T00:44:31.406Z,48.30
2023-12-19T00:46:03.290Z,47.30
2023-12-19T00:46:31.367Z,48.70
2023-12-19T00:47:31.409Z,50.00
2023-12-19T00:48:31.501Z,47.90
2023-12-19T00:49:31.471Z,45.90
2023-12-19T00:50:31.346Z,48.40
2023-12-19T00:51:31.356Z,45.00
2023-12-19T00:52:31.339Z,46.20
2023-12-19T00:53:31.336Z,48.70
2023-12-19T00:54:31.326Z,47.10
2023-12-19T00:55:31.312Z,45.50
2023-12-19T00:56:31.322Z,47.50
2023-12-19T00:57:31.332Z,48.60
2023-12-19T00:58:31.296Z,45.80
2023-12-19T00:59:31.261Z,47.10
2023-12-19T01:00:31.277Z,49.60
2023-12-19T01:01:31.318Z,45.70
2023-12-19T01:02:31.247Z,45.50
2023-12-19T01:03:31.270Z,49.80
2023-12-19T01:04:31.331Z,47.30
2023-12-19T01:05:31.237Z,50.20
2023-12-19T01:06:31.287Z,45.90
2023-12-19T01:07:31.210Z,46.50
2023-12-19T01:08:31.200Z,47.10
2023-12-19T01:09:31.265Z,47.20
2023-12-19T01:10:31.172Z,48.80
2023-12-19T01:11:31.174Z,46.30
2023-12-19T01:12:31.210Z,46.50
2023-12-19T01:13:31.174Z,47.60
2023-12-19T01:14:31.133Z,46.20
2023-12-19T01:15:31.236Z,46.40
2023-12-19T01:16:31.149Z,46.50
2023-12-19T01:17:31.218Z,47.70
2023-12-19T01:18:31.236Z,45.30
2023-12-19T01:19:31.191Z,46.40
2023-12-19T01:20:31.106Z,45.30
2023-12-19T01:21:31.143Z,46.20
2023-12-19T01:22:31.101Z,45.40
2023-12-19T01:23:31.078Z,47.00
2023-12-19T01:24:31.081Z,44.60
2023-12-19T01:25:31.054Z,44.80
2023-12-19T01:26:31.079Z,45.20
2023-12-19T01:27:31.044Z,43.40
2023-12-19T01:28:31.045Z,48.80
2023-12-19T01:29:31.017Z,46.10
2023-12-19T01:30:31.066Z,44.80
2023-12-19T01:31:31.106Z,45.20
2023-12-19T01:32:31.033Z,45.40
2023-12-19T01:34:31.131Z,43.60
2023-12-19T01:35:30.999Z,45.70
2023-12-19T01:36:31.031Z,46.10
2023-12-19T01:37:30.974Z,45.00
2023-12-19T01:38:30.936Z,44.80
2023-12-19T01:39:31.964Z,46.80
2023-12-19T01:40:30.951Z,43.20
2023-12-19T01:41:30.927Z,43.10
2023-12-19T01:42:30.956Z,42.20
2023-12-19T01:43:30.911Z,43.30
2023-12-19T01:44:30.899Z,41.70
2023-12-19T01:45:31.018Z,43.60
2023-12-19T01:46:30.877Z,44.10
2023-12-19T01:47:30.907Z,44.70
2023-12-19T01:48:30.926Z,44.20
2023-12-19T01:49:30.997Z,43.50
2023-12-19T01:50:30.868Z,41.80
2023-12-19T01:51:31.998Z,43.50
2023-12-19T01:52:30.837Z,47.30
2023-12-19T01:53:30.813Z,41.40
2023-12-19T01:54:30.878Z,45.70
2023-12-19T01:55:30.811Z,42.20
2023-12-19T01:56:30.801Z,43.00
2023-12-19T01:57:30.825Z,45.40
2023-12-19T01:58:30.790Z,43.20
2023-12-19T01:59:30.790Z,42.70
2023-12-19T02:00:30.837Z,43.50
2023-12-19T02:01:30.868Z,39.50
2023-12-19T02:02:30.753Z,39.50
2023-12-19T02:03:30.839Z,41.90
2023-12-19T02:04:30.794Z,39.30
2023-12-19T02:05:30.773Z,41.30
2023-12-19T02:06:31.799Z,40.60
2023-12-19T02:07:30.693Z,43.60
2023-12-19T02:08:30.731Z,43.40
2023-12-19T02:09:30.698Z,40.60
2023-12-19T02:10:30.678Z,42.40
2023-12-19T02:11:30.667Z,42.10
2023-12-19T02:12:30.708Z,39.00
2023-12-19T02:13:30.669Z,39.50
2023-12-19T02:14:30.646Z,40.20
2023-12-19T02:15:30.673Z,41.60
2023-12-19T02:16:30.632Z,43.90
2023-12-19T02:17:30.660Z,38.90
2023-12-19T02:18:30.776Z,39.80
2023-12-19T02:19:30.693Z,40.40
2023-12-19T02:20:30.584Z,40.70
2023-12-19T02:21:30.643Z,41.40
2023-12-19T02:22:30.610Z,37.70
2023-12-19T02:23:30.579Z,42.40
2023-12-19T02:24:30.586Z,40.30
2023-12-19T02:25:30.559Z,38.80
2023-12-19T02:26:30.576Z,40.60
2023-12-19T02:27:30.583Z,40.00
2023-12-19T02:28:30.533Z,39.50
2023-12-19T02:29:30.536Z,38.00
2023-12-19T02:30:30.713Z,40.40
2023-12-19T02:31:30.766Z,38.90
2023-12-19T02:32:30.544Z,40.40
2023-12-19T02:33:30.560Z,44.30
2023-12-19T02:34:30.551Z,38.70
2023-12-19T02:35:30.471Z,37.90
2023-12-19T02:36:30.516Z,37.80
2023-12-19T02:37:30.454Z,39.60
2023-12-19T02:38:30.460Z,44.90
2023-12-19T02:39:30.482Z,40.10
2023-12-19T02:40:30.466Z,38.60
2023-12-19T02:41:30.452Z,36.70
2023-12-19T02:42:30.453Z,41.70
2023-12-19T02:43:30.411Z,37.30
2023-12-19T02:44:30.389Z,38.20
2023-12-19T02:45:30.438Z,38.10
2023-12-19T02:46:30.398Z,35.80
2023-12-19T02:47:30.396Z,39.00
2023-12-19T02:48:30.430Z,40.20
2023-12-19T02:49:30.431Z,35.70
2023-12-19T02:50:30.394Z,41.90
2023-12-19T02:51:30.343Z,37.30
2023-12-19T02:52:30.309Z,39.20
2023-12-19T02:53:31.317Z,40.40
2023-12-19T02:54:30.353Z,38.40
2023-12-19T02:55:30.303Z,39.30
2023-12-19T02:56:30.286Z,36.50
2023-12-19T02:57:30.292Z,37.20
2023-12-19T02:58:30.261Z,39.10
2023-12-19T02:59:30.274Z,36.90
2023-12-19T03:00:30.332Z,38.00
2023-12-19T03:01:30.327Z,40.80
2023-12-19T03:02:30.237Z,37.80
2023-12-19T03:03:30.349Z,38.30
2023-12-19T03:04:30.322Z,38.10
2023-12-19T03:05:30.216Z,40.30
2023-12-19T03:06:30.218Z,37.50
2023-12-19T03:07:30.178Z,35.90
2023-12-19T03:08:30.198Z,36.00
2023-12-19T03:09:30.200Z,37.40
2023-12-19T03:10:30.157Z,35.30
2023-12-19T03:11:30.130Z,36.80
2023-12-19T03:12:31.177Z,37.40
2023-12-19T03:13:30.148Z,38.30
2023-12-19T03:14:30.114Z,37.00
2023-12-19T03:15:30.148Z,36.80
2023-12-19T03:16:30.095Z,35.70
2023-12-19T03:17:30.092Z,38.10
2023-12-19T03:18:30.323Z,39.20
2023-12-19T03:19:30.132Z,37.60
2023-12-19T03:20:30.066Z,36.70
2023-12-19T03:21:30.082Z,42.10
2023-12-19T03:22:30.086Z,37.40
2023-12-19T03:23:30.056Z,40.00
2023-12-19T03:24:30.127Z,38.40
2023-12-19T03:25:30.015Z,39.10
2023-12-19T03:26:30.013Z,37.00
2023-12-19T03:27:30.105Z,39.50
2023-12-19T03:28:30.000Z,39.90
2023-12-19T03:29:29.993Z,37.80
2023-12-19T03:30:30.038Z,38.70
2023-12-19T03:31:30.022Z,40.50
2023-12-19T03:32:30.039Z,37.40
2023-12-19T03:33:29.992Z,39.90
2023-12-19T03:34:30.187Z,38.00
2023-12-19T03:35:29.923Z,41.40
2023-12-19T03:36:29.976Z,38.60
2023-12-19T03:37:29.936Z,41.50
2023-12-19T03:38:29.894Z,37.70
2023-12-19T03:39:29.943Z,38.20
2023-12-19T03:40:29.888Z,37.90
2023-12-19T03:41:29.900Z,38.30
2023-12-19T03:42:29.883Z,38.70
2023-12-19T03:43:30.851Z,42.00
2023-12-19T03:44:29.850Z,41.20
2023-12-19T03:45:29.874Z,39.80
2023-12-19T03:46:29.844Z,39.80
2023-12-19T03:47:29.841Z,41.00
2023-12-19T03:48:29.971Z,41.10
2023-12-19T03:49:29.961Z,42.40
2023-12-19T03:50:29.813Z,43.00
2023-12-19T03:51:29.833Z,40.70
2023-12-19T03:52:29.769Z,41.60
2023-12-19T03:53:29.759Z,40.70
2023-12-19T03:54:29.778Z,45.40
2023-12-19T03:55:29.788Z,43.70
2023-12-19T03:56:29.747Z,42.00
2023-12-19T03:57:29.758Z,45.40
2023-12-19T03:58:29.729Z,44.20
2023-12-19T03:59:29.720Z,44.10
2023-12-19T04:00:29.732Z,44.10
2023-12-19T04:01:29.788Z,42.50
2023-12-19T04:02:29.691Z,46.50
2023-12-19T04:03:29.711Z,43.00
2023-12-19T04:04:29.749Z,44.50
2023-12-19T04:05:29.741Z,42.90
2023-12-19T04:06:29.680Z,46.80
2023-12-19T04:07:29.649Z,45.70
2023-12-19T04:08:29.638Z,46.10
2023-12-19T04:09:29.669Z,46.10
2023-12-19T04:10:29.618Z,45.90
2023-12-19T04:11:30.615Z,48.30
2023-12-19T04:12:29.682Z,45.10
2023-12-19T04:13:29.604Z,47.80
2023-12-19T04:14:29.610Z,48.50
2023-12-19T04:15:29.619Z,49.90
2023-12-19T04:16:29.574Z,46.90
2023-12-19T04:17:29.571Z,51.40
2023-12-19T04:18:29.623Z,48.00
2023-12-19T04:19:29.723Z,50.90
2023-12-19T04:20:29.537Z,49.80
2023-12-19T04:21:29.611Z,52.80
2023-12-19T04:22:29.512Z,52.70
2023-12-19T04:23:29.537Z,51.90
2023-12-19T04:24:29.588Z,57.50
2023-12-19T04:25:29.500Z,53.30
2023-12-19T04:26:29.477Z,54.60
2023-12-19T04:27:29.518Z,55.80
2023-12-19T04:28:29.481Z,55.20
2023-12-19T04:29:29.444Z,54.60
2023-12-19T04:30:29.512Z,53.50
2023-12-19T04:31:29.750Z,54.90
2023-12-19T04:32:29.505Z,55.30
2023-12-19T04:33:29.537Z,54.00
2023-12-19T04:34:29.484Z,54.50
2023-12-19T04:35:29.410Z,57.40
2023-12-19T04:36:29.424Z,56.10
2023-12-19T04:37:29.438Z,57.80
2023-12-19T04:38:29.366Z,58.60
2023-12-19T04:39:29.386Z,56.60
2023-12-19T04:40:29.367Z,59.60
2023-12-19T04:41:29.339Z,60.10
2023-12-19T04:42:29.387Z,59.30
2023-12-19T04:43:29.341Z,57.30
2023-12-19T04:44:29.312Z,60.50
2023-12-19T04:45:29.320Z,57.10
2023-12-19T04:46:29.310Z,58.90
2023-12-19T04:47:29.312Z,57.50
2023-12-19T04:48:29.415Z,67.10
2023-12-19T04:49:29.375Z,57.90
2023-12-19T04:50:30.249Z,58.20
2023-12-19T04:51:30.302Z,58.00
2023-12-19T04:52:29.244Z,64.50
2023-12-19T04:53:29.268Z,63.90
2023-12-19T04:54:29.250Z,62.00
2023-12-19T04:55:29.225Z,63.30
2023-12-19T04:56:29.234Z,57.70
2023-12-19T04:57:29.222Z,58.10
2023-12-19T04:58:29.192Z,58.20
2023-12-19T04:59:29.256Z,60.20
2023-12-19T05:00:29.202Z,56.90
2023-12-19T05:01:29.311Z,58.70
2023-12-19T05:02:29.208Z,58.80
2023-12-19T05:03:29.260Z,59.90
2023-12-19T05:04:29.141Z,61.70
2023-12-19T05:05:29.191Z,58.30
2023-12-19T05:06:29.201Z,60.10
2023-12-19T05:07:29.110Z,62.40
2023-12-19T05:08:29.100Z,58.00
2023-12-19T05:09:29.149Z,58.20
2023-12-19T05:10:29.112Z,61.00
2023-12-19T05:11:29.066Z,58.00
2023-12-19T05:12:29.074Z,56.70
2023-12-19T05:13:29.059Z,58.30
2023-12-19T05:14:29.065Z,57.70
2023-12-19T05:15:29.073Z,56.80
2023-12-19T05:16:29.014Z,57.00
2023-12-19T05:17:29.048Z,54.30
2023-12-19T05:18:29.079Z,58.40
2023-12-19T05:19:29.077Z,55.50
2023-12-19T05:20:29.132Z,58.20
2023-12-19T05:21:29.066Z,58.20
2023-12-19T05:22:28.978Z,57.80
2023-12-19T05:23:28.959Z,60.00
2023-12-19T05:24:29.029Z,56.80
2023-12-19T05:25:28.969Z,56.90
2023-12-19T05:26:28.940Z,56.70
2023-12-19T05:27:28.955Z,57.90
2023-12-19T05:28:28.940Z,55.20
2023-12-19T05:29:28.922Z,54.50
2023-12-19T05:30:29.015Z,56.30
2023-12-19T05:31:28.936Z,58.00
2023-12-19T05:32:28.904Z,55.10
2023-12-19T05:33:29.007Z,59.80
2023-12-19T05:34:28.897Z,57.50
2023-12-19T05:35:28.860Z,62.30
2023-12-19T05:36:28.842Z,55.00
2023-12-19T05:37:28.845Z,58.20
2023-12-19T05:38:28.826Z,56.70
2023-12-19T05:39:28.829Z,55.60
2023-12-19T05:40:28.793Z,59.10
2023-12-19T05:41:28.799Z,57.90
2023-12-19T05:42:28.847Z,61.10
2023-12-19T05:43:28.820Z,61.00
2023-12-19T05:44:28.770Z,57.00
2023-12-19T05:45:28.772Z,59.00
2023-12-19T05:46:28.734Z,59.60
2023-12-19T05:47:28.810Z,59.00
2023-12-19T05:48:28.939Z,54.80
2023-12-19T05:49:28.836Z,56.00
2023-12-19T05:50:28.711Z,58.90
2023-12-19T05:51:28.731Z,62.10
2023-12-19T05:52:30.403Z,57.10
2023-12-19T05:53:28.685Z,62.80
2023-12-19T05:54:28.722Z,57.80
2023-12-19T05:55:28.669Z,58.00
2023-12-19T05:56:28.654Z,56.90
2023-12-19T05:57:28.710Z,60.10
2023-12-19T05:58:28.628Z,57.00
2023-12-19T05:59:28.675Z,61.60
2023-12-19T06:00:28.746Z,61.10
2023-12-19T06:01:28.682Z,58.60
2023-12-19T06:02:28.614Z,60.90
2023-12-19T06:03:28.749Z,58.60
2023-12-19T06:04:28.617Z,60.20
2023-12-19T06:05:28.596Z,63.40
2023-12-19T06:06:28.617Z,61.30
2023-12-19T06:07:28.561Z,57.50
2023-12-19T06:08:28.541Z,59.40
2023-12-19T06:09:28.568Z,55.40
2023-12-19T06:10:28.535Z,55.00
2023-12-19T06:11:28.599Z,59.80
2023-12-19T06:12:28.536Z,64.40
2023-12-19T06:13:28.501Z,60.20
2023-12-19T06:14:28.492Z,55.90
2023-12-19T06:15:28.565Z,62.10
2023-12-19T06:16:28.493Z,61.40
2023-12-19T06:17:28.489Z,65.80
2023-12-19T06:18:28.609Z,62.10
2023-12-19T06:19:29.540Z,64.50
2023-12-19T06:20:28.450Z,62.70
2023-12-19T06:21:28.462Z,61.90
2023-12-19T06:22:28.402Z,65.90
2023-12-19T06:23:28.419Z,65.90
2023-12-19T06:24:28.458Z,67.70
2023-12-19T06:25:28.425Z,68.10
2023-12-19T06:26:28.376Z,66.40
2023-12-19T06:27:28.413Z,62.60
2023-12-19T06:28:28.363Z,68.50
2023-12-19T06:29:28.365Z,64.60
2023-12-19T06:30:32.030Z,66.40
2023-12-19T06:31:29.459Z,61.00
2023-12-19T06:32:28.316Z,65.70
2023-12-19T06:33:28.485Z,65.40
2023-12-19T06:34:28.382Z,65.80
2023-12-19T06:35:28.277Z,63.90
2023-12-19T06:36:28.327Z,63.20
2023-12-19T06:37:28.305Z,65.50
2023-12-19T06:38:28.261Z,61.00
2023-12-19T06:39:28.292Z,65.30
2023-12-19T06:40:28.256Z,59.20
2023-12-19T06:41:28.248Z,59.60
2023-12-19T06:42:28.324Z,61.60
2023-12-19T06:43:28.294Z,59.90
2023-12-19T06:44:28.262Z,64.30
2023-12-19T06:45:28.245Z,61.90
2023-12-19T06:46:28.197Z,61.40
2023-12-19T06:47:28.227Z,62.10
2023-12-19T06:48:28.238Z,59.20
2023-12-19T06:49:28.274Z,57.80
2023-12-19T06:50:28.171Z,58.80
2023-12-19T06:51:28.250Z,61.20
2023-12-19T06:52:28.129Z,58.60
2023-12-19T06:53:28.148Z,58.10
2023-12-19T06:54:28.157Z,59.40
2023-12-19T06:55:28.129Z,61.20
2023-12-19T06:56:28.630Z,58.00
2023-12-19T06:57:28.127Z,57.50
2023-12-19T06:58:28.114Z,58.60
2023-12-19T06:59:28.074Z,55.50
2023-12-19T07:00:28.135Z,56.40
2023-12-19T07:01:28.202Z,56.60
2023-12-19T07:02:28.061Z,53.40
2023-12-19T07:03:28.133Z,57.50
2023-12-19T07:04:28.096Z,58.20
2023-12-19T07:05:28.055Z,57.80
2023-12-19T07:06:28.011Z,57.40
2023-12-19T07:07:28.017Z,57.60
2023-12-19T07:08:30.031Z,54.50
2023-12-19T07:09:28.022Z,53.10
2023-12-19T07:10:27.969Z,53.50
2023-12-19T07:11:27.983Z,54.30
2023-12-19T07:12:27.993Z,51.40
2023-12-19T07:13:27.948Z,51.80
2023-12-19T07:14:27.925Z,50.30
2023-12-19T07:15:27.955Z,54.40
2023-12-19T07:16:27.946Z,52.60
2023-12-19T07:17:27.971Z,53.70
2023-12-19T07:18:27.996Z,51.70
2023-12-19T07:19:28.048Z,56.10
2023-12-19T07:20:27.876Z,54.00
2023-12-19T07:21:27.964Z,52.50
2023-12-19T07:22:27.880Z,52.60
2023-12-19T07:23:27.911Z,50.10
2023-12-19T07:24:27.884Z,51.80
2023-12-19T07:25:27.862Z,52.70
2023-12-19T07:26:27.864Z,53.70
2023-12-19T07:27:27.848Z,48.50
2023-12-19T07:28:27.806Z,53.10
2023-12-19T07:29:27.811Z,51.40
2023-12-19T07:30:27.951Z,52.60
2023-12-19T07:31:27.927Z,53.60
2023-12-19T07:32:27.827Z,54.20
2023-12-19T07:33:27.800Z,53.90
2023-12-19T07:34:27.868Z,50.40
2023-12-19T07:35:33.357Z,48.90
2023-12-19T07:36:28.765Z,51.60
2023-12-19T07:37:27.755Z,50.20
2023-12-19T07:38:27.725Z,49.60
2023-12-19T07:39:27.796Z,54.40
2023-12-19T07:40:27.790Z,48.80
2023-12-19T07:41:27.765Z,53.00
2023-12-19T07:42:27.698Z,49.80
2023-12-19T07:43:27.696Z,51.60
2023-12-19T07:44:27.690Z,51.30
2023-12-19T07:45:27.707Z,53.80
2023-12-19T07:46:27.675Z,53.10
2023-12-19T07:47:27.686Z,55.40
2023-12-19T07:48:27.718Z,53.50
2023-12-19T07:49:27.759Z,53.40
2023-12-19T07:50:27.624Z,55.60
2023-12-19T07:51:27.883Z,56.10
2023-12-19T07:52:27.618Z,52.20
2023-12-19T07:53:27.645Z,52.50
2023-12-19T07:54:27.642Z,52.60
2023-12-19T07:55:27.585Z,53.90
2023-12-19T07:56:27.593Z,52.60
2023-12-19T07:57:27.638Z,51.80
2023-12-19T07:58:27.576Z,57.50
2023-12-19T07:59:27.571Z,51.10
2023-12-19T08:00:27.569Z,53.90
2023-12-19T08:01:27.664Z,53.10
2023-12-19T08:02:27.547Z,50.00
2023-12-19T08:03:27.610Z,54.20
2023-12-19T08:04:27.520Z,52.90
2023-12-19T08:05:27.561Z,49.50
2023-12-19T08:06:27.553Z,53.90
2023-12-19T08:07:27.513Z,58.70
2023-12-19T08:08:27.512Z,54.40
2023-12-19T08:09:27.504Z,56.00
2023-12-19T08:10:27.490Z,50.50
2023-12-19T08:11:27.468Z,51.40
2023-12-19T08:12:27.535Z,50.90
2023-12-19T08:13:30.228Z,52.40
2023-12-19T08:14:28.439Z,52.50
2023-12-19T08:15:27.475Z,48.80
2023-12-19T08:16:27.422Z,53.00
2023-12-19T08:17:27.423Z,49.90
2023-12-19T08:18:27.489Z,48.30
2023-12-19T08:19:27.549Z,54.10
2023-12-19T08:20:27.386Z,50.30
2023-12-19T08:21:27.435Z,56.70
2023-12-19T08:22:27.386Z,47.80
2023-12-19T08:23:27.355Z,51.20
2023-12-19T08:24:27.412Z,51.80
2023-12-19T08:25:27.341Z,51.80
2023-12-19T08:26:27.365Z,48.30
2023-12-19T08:27:27.475Z,52.50
2023-12-19T08:28:27.314Z,55.10
2023-12-19T08:29:27.314Z,50.50
2023-12-19T08:30:27.392Z,49.60
2023-12-19T08:31:27.449Z,49.30
2023-12-19T08:32:27.287Z,48.90
2023-12-19T08:33:27.409Z,52.10
2023-12-19T08:34:27.346Z,51.90
2023-12-19T08:35:27.302Z,49.40
2023-12-19T08:36:33.824Z,51.20
2023-12-19T08:37:28.255Z,49.80
2023-12-19T08:38:27.227Z,50.20
2023-12-19T08:39:27.267Z,50.30
2023-12-19T08:40:27.243Z,48.70
2023-12-19T08:41:27.210Z,52.10
2023-12-19T08:42:27.222Z,47.00
2023-12-19T08:43:27.194Z,55.00
2023-12-19T08:44:27.195Z,49.10
2023-12-19T08:45:27.206Z,47.50
2023-12-19T08:46:27.182Z,48.10
2023-12-19T08:47:27.176Z,49.20
2023-12-19T08:48:27.220Z,48.30
2023-12-19T08:49:27.230Z,48.60
2023-12-19T08:50:27.176Z,46.10
2023-12-19T08:51:27.162Z,47.90
2023-12-19T08:52:27.192Z,44.50
2023-12-19T08:53:27.118Z,46.40
2023-12-19T08:54:27.141Z,46.60
2023-12-19T08:55:27.107Z,45.70
2023-12-19T08:56:27.125Z,43.50
2023-12-19T08:57:27.138Z,44.60
2023-12-19T08:58:27.070Z,41.50
2023-12-19T08:59:27.102Z,43.60
2023-12-19T09:00:27.143Z,47.10
2023-12-19T09:01:27.123Z,41.70
2023-12-19T09:02:27.066Z,44.00
2023-12-19T09:03:27.114Z,42.40
2023-12-19T09:04:27.134Z,43.90
2023-12-19T09:05:27.016Z,42.30
2023-12-19T09:06:27.035Z,44.60
2023-12-19T09:07:27.009Z,44.10
2023-12-19T09:08:27.043Z,44.80
2023-12-19T09:09:27.009Z,44.60
2023-12-19T09:10:26.971Z,41.80
2023-12-19T09:11:28.930Z,40.30
2023-12-19T09:12:26.997Z,40.40
2023-12-19T09:13:26.975Z,37.60
2023-12-19T09:14:27.952Z,36.50
2023-12-19T09:15:26.957Z,42.40
2023-12-19T09:16:26.922Z,41.10
2023-12-19T09:17:26.936Z,37.40
2023-12-19T09:18:27.046Z,41.20
2023-12-19T09:19:27.014Z,40.80
2023-12-19T09:20:26.880Z,40.50
2023-12-19T09:21:26.918Z,41.20
2023-12-19T09:22:26.899Z,39.60
2023-12-19T09:23:26.908Z,39.60
2023-12-19T09:24:26.843Z,35.20
2023-12-19T09:25:26.858Z,35.80
2023-12-19T09:26:26.841Z,38.20
2023-12-19T09:27:26.895Z,35.80
2023-12-19T09:28:26.826Z,35.20
2023-12-19T09:29:26.814Z,31.40
2023-12-19T09:30:26.875Z,32.80
2023-12-19T09:31:26.922Z,29.80
2023-12-19T09:32:26.879Z,34.50
2023-12-19T09:33:26.871Z,33.00
2023-12-19T09:34:26.821Z,31.80
2023-12-19T09:35:26.826Z,29.90
2023-12-19T09:36:26.793Z,31.30
2023-12-19T09:37:26.807Z,31.30
2023-12-19T09:38:26.725Z,31.60
2023-12-19T09:39:26.737Z,29.00
2023-12-19T09:40:26.738Z,29.00
2023-12-19T09:41:26.728Z,28.50
2023-12-19T09:42:26.727Z,26.20
2023-12-19T09:43:26.683Z,27.50
2023-12-19T09:44:26.926Z,27.70
2023-12-19T09:45:26.757Z,26.60
2023-12-19T09:46:26.695Z,27.00
2023-12-19T09:47:26.680Z,26.90
2023-12-19T09:48:26.702Z,25.50
2023-12-19T09:49:26.876Z,23.60
2023-12-19T09:50:26.653Z,22.00
2023-12-19T09:51:26.671Z,25.70
2023-12-19T09:52:26.628Z,26.00
2023-12-19T09:53:32.838Z,23.40
2023-12-19T09:54:27.664Z,23.50
2023-12-19T09:55:26.626Z,24.00
2023-12-19T09:56:26.572Z,22.90
2023-12-19T09:57:26.621Z,22.50
2023-12-19T09:58:26.564Z,21.70
2023-12-19T09:59:26.584Z,19.80
2023-12-19T10:00:58.554Z,20.90
2023-12-19T10:01:28.684Z,21.50
2023-12-19T10:02:27.497Z,19.50
2023-12-19T10:03:26.536Z,19.30
2023-12-19T10:04:26.590Z,21.50
2023-12-19T10:05:26.481Z,21.20
2023-12-19T10:06:26.507Z,19.40
2023-12-19T10:07:26.465Z,21.60
2023-12-19T10:08:26.449Z,20.90
2023-12-19T10:09:26.507Z,19.00
2023-12-19T10:10:26.423Z,21.00
2023-12-19T10:11:26.405Z,17.90
2023-12-19T10:12:26.408Z,20.10
2023-12-19T10:13:26.461Z,19.70
2023-12-19T10:14:26.389Z,19.30
2023-12-19T10:15:26.402Z,18.60
2023-12-19T10:16:32.289Z,21.80
2023-12-19T10:17:27.417Z,19.90
2023-12-19T10:18:31.298Z,19.80
2023-12-19T10:19:28.385Z,19.40
2023-12-19T10:20:26.395Z,19.60
2023-12-19T10:21:26.329Z,20.30
2023-12-19T10:22:26.312Z,19.70
2023-12-19T10:23:26.297Z,19.50
2023-12-19T10:24:26.348Z,18.60
2023-12-19T10:25:30.827Z,18.20
2023-12-19T10:26:28.268Z,20.40
2023-12-19T10:27:26.297Z,18.80
2023-12-19T10:28:26.226Z,18.60
2023-12-19T10:29:26.250Z,18.20
2023-12-19T10:30:26.242Z,19.30
2023-12-19T10:31:26.324Z,19.10
2023-12-19T10:32:26.213Z,18.00
2023-12-19T10:33:26.301Z,17.60
2023-12-19T10:34:26.246Z,19.10
2023-12-19T10:35:26.166Z,18.20
2023-12-19T10:36:26.222Z,20.30
2023-12-19T10:37:36.552Z,21.30
2023-12-19T10:38:28.139Z,18.70
2023-12-19T10:39:26.147Z,19.80
2023-12-19T10:40:26.153Z,21.20
2023-12-19T10:41:26.115Z,18.50
2023-12-19T10:42:26.171Z,18.80
2023-12-19T10:43:26.086Z,20.90
2023-12-19T10:44:26.072Z,21.30
2023-12-19T10:45:26.137Z,19.10
2023-12-19T10:46:26.068Z,20.40
2023-12-19T10:47:26.090Z,21.40
2023-12-19T10:48:26.151Z,21.70
2023-12-19T10:49:26.185Z,20.50
2023-12-19T10:50:26.363Z,20.20
2023-12-19T10:51:26.095Z,20.60
2023-12-19T10:52:25.991Z,19.30
2023-12-19T10:53:26.011Z,19.10
2023-12-19T10:54:26.115Z,19.20
2023-12-19T10:55:26.013Z,20.00
2023-12-19T10:56:25.966Z,20.30
2023-12-19T10:57:25.971Z,20.10
2023-12-19T10:58:25.985Z,21.20
2023-12-19T10:59:25.927Z,25.00
2023-12-19T11:00:25.985Z,22.40
2023-12-19T11:01:25.978Z,20.80
2023-12-19T11:02:28.616Z,19.90
2023-12-19T11:03:27.195Z,19.60
2023-12-19T11:04:25.950Z,20.50
2023-12-19T11:05:25.939Z,21.20
2023-12-19T11:06:25.876Z,27.90
2023-12-19T11:07:25.854Z,23.50
2023-12-19T11:08:25.839Z,22.90
2023-12-19T11:09:25.882Z,20.60
2023-12-19T11:10:25.858Z,27.30
2023-12-19T11:11:26.375Z,48.30
2023-12-19T11:12:25.822Z,48.10
2023-12-19T11:13:25.776Z,27.20
2023-12-19T11:14:28.806Z,35.00
2023-12-19T11:15:26.841Z,29.40
2023-12-19T11:16:25.794Z,24.90
2023-12-19T11:17:25.965Z,23.40
2023-12-19T11:18:25.856Z,24.60
2023-12-19T11:19:25.996Z,22.20
2023-12-19T11:20:27.748Z,21.90
2023-12-19T11:21:25.746Z,23.80
2023-12-19T11:22:25.796Z,23.70
2023-12-19T11:23:25.842Z,22.00
2023-12-19T11:24:25.709Z,24.90
2023-12-19T11:25:28.704Z,23.50
2023-12-19T11:26:27.664Z,23.90
2023-12-19T11:27:25.714Z,24.70
2023-12-19T11:28:25.681Z,23.50
2023-12-19T11:29:25.649Z,22.80
2023-12-19T11:30:25.719Z,22.40
2023-12-19T11:31:26.952Z,23.50
2023-12-19T11:32:25.738Z,23.40
2023-12-19T11:33:25.740Z,27.70
2023-12-19T11:34:26.009Z,27.90
2023-12-19T11:35:25.610Z,25.80
2023-12-19T11:36:25.572Z,26.50
2023-12-19T11:37:27.724Z,27.80
2023-12-19T11:38:26.610Z,27.30
2023-12-19T11:39:25.577Z,24.70
2023-12-19T11:40:25.541Z,26.70
2023-12-19T11:41:25.527Z,25.70
2023-12-19T11:42:25.552Z,29.50
2023-12-19T11:43:27.055Z,29.30
2023-12-19T11:44:25.493Z,30.10
2023-12-19T11:45:25.497Z,26.60
2023-12-19T11:46:25.495Z,28.10
2023-12-19T11:47:25.528Z,30.00
2023-12-19T11:48:25.468Z,30.70
2023-12-19T11:49:25.530Z,28.40
2023-12-19T11:50:25.451Z,30.90
2023-12-19T11:51:25.457Z,29.80
2023-12-19T11:52:25.423Z,31.30
2023-12-19T11:53:25.416Z,33.20
2023-12-19T11:54:25.402Z,32.90
2023-12-19T11:55:25.438Z,38.00
2023-12-19T11:56:25.414Z,32.40
2023-12-19T11:57:25.369Z,33.80
2023-12-19T11:58:25.403Z,34.90
2023-12-19T11:59:25.393Z,32.00
2023-12-19T12:00:25.365Z,33.40
2023-12-19T12:01:25.451Z,38.30
2023-12-19T12:02:25.326Z,35.30
2023-12-19T12:03:25.318Z,36.20
2023-12-19T12:04:25.375Z,36.50
2023-12-19T12:05:25.386Z,34.80
2023-12-19T12:06:25.331Z,39.50
2023-12-19T12:07:27.853Z,38.10
2023-12-19T12:08:25.276Z,36.50
2023-12-19T12:09:25.263Z,39.40
2023-12-19T12:10:25.276Z,38.80
2023-12-19T12:11:25.266Z,40.70
2023-12-19T12:12:25.229Z,41.40
2023-12-19T12:13:27.294Z,39.00
2023-12-19T12:14:25.241Z,42.20
2023-12-19T12:15:25.256Z,39.10
2023-12-19T12:16:25.195Z,39.30
2023-12-19T12:17:25.253Z,39.60
2023-12-19T12:18:25.291Z,41.00
2023-12-19T12:19:27.414Z,39.20
2023-12-19T12:20:26.175Z,39.40
2023-12-19T12:21:25.164Z,46.10
2023-12-19T12:22:25.133Z,43.40
2023-12-19T12:23:25.143Z,40.60
2023-12-19T12:24:32.481Z,40.00
2023-12-19T12:25:28.451Z,41.80
2023-12-19T12:26:26.108Z,41.90
2023-12-19T12:27:25.763Z,38.50
2023-12-19T12:28:25.154Z,39.80
2023-12-19T12:29:25.086Z,38.10
2023-12-19T12:30:25.084Z,40.30
2023-12-19T12:31:28.610Z,41.30
2023-12-19T12:32:26.147Z,41.90
2023-12-19T12:33:25.049Z,42.10
2023-12-19T12:34:25.217Z,43.30
2023-12-19T12:35:25.024Z,41.80
2023-12-19T12:36:25.007Z,39.30
2023-12-19T12:37:28.183Z,38.40
2023-12-19T12:38:26.013Z,51.10
2023-12-19T12:39:24.986Z,40.80
2023-12-19T12:40:25.002Z,41.50
2023-12-19T12:41:24.960Z,40.80
2023-12-19T12:42:24.976Z,40.10
2023-12-19T12:43:27.748Z,40.40
2023-12-19T12:44:24.936Z,41.50
2023-12-19T12:45:24.932Z,38.60
2023-12-19T12:46:24.910Z,40.70
2023-12-19T12:47:24.919Z,37.50
2023-12-19T12:48:24.908Z,43.60
2023-12-19T12:49:24.950Z,41.20
2023-12-19T12:50:25.161Z,44.80
2023-12-19T12:51:24.891Z,42.30
2023-12-19T12:52:24.920Z,42.50
2023-12-19T12:53:24.857Z,41.60